Time;durP1;ratioP1;P1;durP2;ratioP2;P2;SDS_P1;SDS_P2;PMS_P1;PMS_P2;Temp;Humidity;BMP_temperature;BMP_pressure;BME280_temperature;BME280_humidity;BME280_pressure;Samples;Min_cycle;Max_cycle;Signal;HPM_P1;HPM_P2
2022/07/21 00:02:02;;;;;;;11.17;10.00;;;21.40;99.90;;;;;;5124533;28;20485;-84
2022/07/21 00:04:29;;;;;;;12.13;11.00;;;21.40;99.90;;;;;;5102287;28;20477;-84
2022/07/21 00:06:56;;;;;;;12.47;11.17;;;21.40;99.90;;;;;;5100784;28;20514;-85
2022/07/21 00:09:23;;;;;;;12.47;11.27;;;21.30;99.90;;;;;;5117026;28;20540;-85
2022/07/21 00:11:50;;;;;;;13.33;11.93;;;21.30;99.90;;;;;;5117541;28;20491;-84
2022/07/21 00:14:18;;;;;;;12.80;11.50;;;21.30;99.90;;;;;;5100108;28;20521;-85
2022/07/21 00:16:45;;;;;;;13.50;12.10;;;21.30;99.90;;;;;;5101096;28;20541;-85
2022/07/21 00:19:12;;;;;;;12.30;11.10;;;21.30;99.90;;;;;;5112556;28;20468;-84
2022/07/21 00:21:39;;;;;;;12.27;10.80;;;21.30;99.90;;;;;;5120820;28;20809;-85
2022/07/21 00:24:06;;;;;;;12.60;11.30;;;21.30;99.90;;;;;;5114502;28;20470;-85
2022/07/21 00:26:33;;;;;;;12.70;11.30;;;21.20;99.90;;;;;;5100943;28;20470;-86
2022/07/21 00:29:00;;;;;;;15.67;14.00;;;21.20;99.90;;;;;;5114348;28;20453;-85
2022/07/21 00:31:28;;;;;;;11.23;9.77;;;21.10;99.90;;;;;;5123178;28;20556;-85
2022/07/21 00:33:55;;;;;;;13.80;12.03;;;21.00;99.90;;;;;;5130467;27;20477;-85
2022/07/21 00:36:22;;;;;;;13.47;12.00;;;21.10;99.90;;;;;;5106762;28;20990;-85
2022/07/21 00:38:49;;;;;;;13.80;12.27;;;21.10;99.90;;;;;;5097928;28;20808;-86
2022/07/21 00:41:16;;;;;;;15.10;13.60;;;21.00;99.90;;;;;;5096804;28;20446;-85
2022/07/21 00:43:43;;;;;;;15.30;13.20;;;20.80;99.90;;;;;;5102507;28;21008;-84
2022/07/21 00:46:10;;;;;;;14.67;12.20;;;20.80;99.90;;;;;;5098918;28;20532;-84
2022/07/21 00:48:38;;;;;;;16.60;14.20;;;20.90;99.90;;;;;;5100011;28;20537;-85
2022/07/21 00:51:05;;;;;;;11.20;9.30;;;20.80;99.90;;;;;;5104542;28;20560;-85
2022/07/21 00:53:32;;;;;;;12.40;9.57;;;20.70;99.90;;;;;;5116788;28;20497;-85
2022/07/21 00:56:00;;;;;;;10.23;8.97;;;20.70;99.90;;;;;;5098088;28;20516;-84
2022/07/21 00:58:26;;;;;;;10.43;9.43;;;20.70;99.90;;;;;;5131705;27;20449;-84
2022/07/21 01:00:53;;;;;;;11.07;9.80;;;20.70;99.90;;;;;;5119172;28;20532;-85
2022/07/21 01:03:20;;;;;;;11.23;8.73;;;20.60;99.90;;;;;;5099597;28;20480;-85
2022/07/21 01:05:49;;;;;;;12.93;10.30;;;20.60;99.90;;;;;;5100006;28;20542;-84
2022/07/21 01:08:16;;;;;;;11.03;9.90;;;20.60;99.90;;;;;;5095492;28;20450;-84
2022/07/21 01:10:43;;;;;;;11.13;10.03;;;20.60;99.90;;;;;;5099695;28;20485;-85
2022/07/21 01:13:10;;;;;;;9.03;8.17;;;20.60;99.90;;;;;;5117999;28;20531;-84
2022/07/21 01:15:37;;;;;;;11.70;10.50;;;20.70;99.90;;;;;;5101335;28;20450;-84
2022/07/21 01:18:04;;;;;;;11.07;9.07;;;20.70;99.90;;;;;;5117760;28;20874;-84
2022/07/21 01:20:36;;;;;;;9.07;7.13;;;20.70;99.90;;;;;;5105677;28;20536;-84
2022/07/21 01:23:04;;;;;;;9.90;7.70;;;20.70;99.90;;;;;;5099859;28;20469;-84
2022/07/21 01:25:31;;;;;;;8.90;8.03;;;20.70;99.90;;;;;;5114886;28;20535;-84
2022/07/21 01:27:58;;;;;;;10.07;8.70;;;20.70;99.90;;;;;;5122416;28;20466;-85
2022/07/21 01:30:25;;;;;;;9.00;8.00;;;20.70;99.90;;;;;;5108730;28;20478;-85
2022/07/21 01:32:52;;;;;;;7.70;7.00;;;20.70;99.90;;;;;;5099542;28;20480;-85
2022/07/21 01:35:19;;;;;;;9.37;8.47;;;20.80;99.90;;;;;;5102608;28;20541;-85
2022/07/21 01:37:47;;;;;;;9.73;8.73;;;20.80;99.90;;;;;;5100455;28;20470;-85
2022/07/21 01:43:02;;;;;;;10.20;9.20;;;20.80;99.90;;;;;;5098191;28;20470;-85
2022/07/21 01:45:29;;;;;;;9.60;8.77;;;20.70;99.90;;;;;;5099468;28;21088;-85
2022/07/21 01:47:56;;;;;;;10.43;9.43;;;20.70;99.90;;;;;;5099919;28;20457;-85
2022/07/21 01:50:26;;;;;;;10.57;9.47;;;20.70;99.90;;;;;;5088131;28;20537;-85
2022/07/21 01:52:54;;;;;;;9.63;8.60;;;20.60;99.90;;;;;;5089620;28;20499;-85
2022/07/21 01:55:23;;;;;;;13.93;10.17;;;20.60;99.90;;;;;;5098672;28;21104;-85
2022/07/21 01:57:50;;;;;;;11.70;10.60;;;20.60;99.90;;;;;;5105451;28;20552;-86
2022/07/21 02:00:17;;;;;;;10.13;9.03;;;20.50;99.90;;;;;;5118531;28;20915;-85
2022/07/21 02:02:44;;;;;;;11.20;9.80;;;20.50;99.90;;;;;;5112594;28;21048;-85
2022/07/21 02:05:11;;;;;;;11.87;10.63;;;20.60;99.90;;;;;;5099901;28;20522;-85
2022/07/21 02:07:38;;;;;;;14.03;11.00;;;20.60;99.90;;;;;;5103808;28;20523;-85
2022/07/21 02:10:06;;;;;;;11.87;10.60;;;20.50;99.90;;;;;;5122164;28;20473;-85
2022/07/21 02:12:34;;;;;;;12.83;10.87;;;20.50;99.90;;;;;;5118085;28;20481;-85
2022/07/21 02:15:01;;;;;;;14.40;12.07;;;20.40;99.90;;;;;;5106224;28;20481;-85
2022/07/21 02:17:28;;;;;;;18.70;11.97;;;20.30;99.90;;;;;;5103417;28;20541;-85
2022/07/21 02:19:54;;;;;;;11.17;10.00;;;20.00;99.90;;;;;;5124562;28;20469;-85
2022/07/21 02:22:21;;;;;;;12.77;11.47;;;19.90;99.90;;;;;;5115835;28;20481;-84
2022/07/21 02:24:48;;;;;;;11.50;10.30;;;19.80;99.90;;;;;;5106651;28;20474;-85
2022/07/21 02:27:15;;;;;;;11.77;10.23;;;19.70;99.90;;;;;;5109610;28;20489;-85
2022/07/21 02:29:43;;;;;;;11.23;10.10;;;19.60;99.90;;;;;;5109284;28;20446;-84
2022/07/21 02:32:10;;;;;;;13.77;10.50;;;19.50;99.90;;;;;;5117426;28;20537;-84
2022/07/21 02:34:37;;;;;;;11.67;10.47;;;19.40;99.90;;;;;;5116405;28;20446;-83
2022/07/21 02:37:04;;;;;;;10.07;9.00;;;19.30;99.90;;;;;;5112202;28;20477;-84
2022/07/21 02:39:31;;;;;;;8.83;7.93;;;19.30;99.90;;;;;;5103433;28;20469;-84
2022/07/21 02:41:58;;;;;;;8.93;7.60;;;19.30;99.90;;;;;;5109839;28;20472;-84
2022/07/21 02:44:26;;;;;;;9.30;7.60;;;19.20;99.90;;;;;;5098389;28;20454;-84
2022/07/21 02:46:54;;;;;;;11.20;7.73;;;19.20;99.90;;;;;;5099017;28;20461;-85
2022/07/21 02:49:21;;;;;;;7.70;6.90;;;19.20;99.90;;;;;;5099105;28;20473;-85
2022/07/21 02:51:48;;;;;;;8.43;6.70;;;19.20;99.90;;;;;;5111950;28;20512;-85
2022/07/21 02:54:15;;;;;;;9.87;8.17;;;19.20;99.90;;;;;;5105194;28;20481;-85
2022/07/21 02:56:41;;;;;;;7.27;6.47;;;19.10;99.90;;;;;;5105187;28;20480;-85
2022/07/21 02:59:08;;;;;;;10.10;6.97;;;19.00;99.90;;;;;;5104718;28;21005;-84
2022/07/21 03:01:35;;;;;;;7.97;6.73;;;19.00;99.90;;;;;;5104393;28;20502;-84
2022/07/21 03:04:03;;;;;;;7.90;6.83;;;19.00;99.90;;;;;;5103621;28;20467;-85
2022/07/21 03:06:30;;;;;;;11.60;8.30;;;19.00;99.90;;;;;;5104108;28;20484;-85
2022/07/21 03:08:57;;;;;;;10.13;7.87;;;18.90;99.90;;;;;;5104744;28;20465;-85
2022/07/21 03:11:24;;;;;;;7.77;6.90;;;18.80;99.90;;;;;;5110755;28;20560;-84
2022/07/21 03:13:51;;;;;;;10.53;7.50;;;18.90;99.90;;;;;;5103050;28;20508;-85
2022/07/21 03:16:18;;;;;;;10.27;8.53;;;18.90;99.90;;;;;;5104306;28;20478;-84
2022/07/21 03:18:45;;;;;;;8.63;7.73;;;18.90;99.90;;;;;;5104112;28;20489;-84
2022/07/21 03:21:13;;;;;;;7.53;6.80;;;18.90;99.90;;;;;;5111595;28;20442;-84
2022/07/21 03:23:45;;;;;;;8.33;7.53;;;18.90;99.90;;;;;;5103632;28;20888;-84
2022/07/21 03:26:12;;;;;;;7.60;6.80;;;19.00;99.90;;;;;;5103046;28;20453;-83
2022/07/21 03:28:39;;;;;;;9.93;7.53;;;18.90;99.90;;;;;;5112385;28;20532;-85
2022/07/21 03:31:06;;;;;;;10.37;8.50;;;18.90;99.90;;;;;;5123145;28;20535;-85
2022/07/21 03:33:33;;;;;;;9.90;8.90;;;18.80;99.90;;;;;;5112349;28;20548;-84
2022/07/21 03:36:00;;;;;;;10.93;8.50;;;18.80;99.90;;;;;;5102805;28;20460;-85
2022/07/21 03:38:28;;;;;;;9.60;8.50;;;18.90;99.90;;;;;;5107427;28;20477;-86
2022/07/21 03:40:56;;;;;;;8.17;7.37;;;18.90;99.90;;;;;;5117517;28;20474;-85
2022/07/21 03:43:23;;;;;;;9.17;8.13;;;18.90;99.90;;;;;;5103416;28;20546;-84
2022/07/21 03:45:49;;;;;;;11.77;8.23;;;18.90;99.90;;;;;;5100671;28;20449;-85
2022/07/21 03:48:16;;;;;;;9.20;8.20;;;18.90;99.90;;;;;;5106068;28;21036;-84
2022/07/21 03:50:43;;;;;;;11.97;9.50;;;18.90;99.90;;;;;;5100905;28;20454;-85
2022/07/21 03:53:10;;;;;;;10.10;8.60;;;18.90;99.90;;;;;;5100290;28;20466;-85
2022/07/21 03:55:38;;;;;;;9.97;8.20;;;18.90;99.90;;;;;;5116078;28;20453;-84
2022/07/21 03:58:07;;;;;;;12.20;10.90;;;18.90;99.90;;;;;;5113183;28;20522;-85
2022/07/21 04:00:36;;;;;;;10.13;9.03;;;18.90;99.90;;;;;;5108195;28;20446;-85
2022/07/21 04:03:04;;;;;;;9.87;8.97;;;18.90;99.90;;;;;;5099819;28;20588;-85
2022/07/21 04:05:31;;;;;;;10.40;9.40;;;19.00;99.90;;;;;;5115028;28;20516;-83
2022/07/21 04:07:58;;;;;;;9.10;8.20;;;19.00;99.90;;;;;;5114937;28;20966;-85
2022/07/21 04:10:27;;;;;;;10.23;9.30;;;19.10;99.90;;;;;;5113102;28;20543;-85
2022/07/21 04:12:56;;;;;;;9.47;8.00;;;19.00;99.90;;;;;;5119150;28;20856;-85
2022/07/21 04:15:23;;;;;;;9.17;8.27;;;19.00;99.90;;;;;;5108412;28;20453;-86
2022/07/21 04:17:50;;;;;;;10.57;9.20;;;19.00;99.90;;;;;;5103769;28;20533;-85
2022/07/21 04:20:17;;;;;;;10.43;8.27;;;19.00;99.90;;;;;;5108100;28;20446;-85
2022/07/21 04:22:45;;;;;;;12.50;8.60;;;19.00;99.90;;;;;;5104028;28;20552;-81
2022/07/21 04:25:13;;;;;;;13.17;10.30;;;19.00;99.90;;;;;;5103252;28;20457;-84
2022/07/21 04:27:41;;;;;;;8.67;7.87;;;19.00;99.90;;;;;;5105143;28;20473;-84
2022/07/21 04:30:14;;;;;;;9.30;8.33;;;19.00;99.90;;;;;;5103183;28;20485;-85
2022/07/21 04:32:41;;;;;;;10.20;9.17;;;19.10;99.90;;;;;;5104236;28;20551;-85
2022/07/21 04:35:09;;;;;;;11.67;10.47;;;19.10;99.90;;;;;;5119204;28;20433;-84
2022/07/21 04:37:37;;;;;;;11.70;9.60;;;19.10;99.90;;;;;;5127550;28;20477;-85
2022/07/21 04:40:07;;;;;;;9.27;8.30;;;19.00;99.90;;;;;;5104892;28;20442;-85
2022/07/21 04:42:34;;;;;;;12.27;8.63;;;18.90;99.90;;;;;;5104644;28;20495;-84
2022/07/21 04:45:01;;;;;;;10.47;9.30;;;19.00;99.90;;;;;;5106271;28;20472;-85
2022/07/21 04:47:29;;;;;;;10.03;9.03;;;19.10;99.90;;;;;;5124039;28;20474;-85
2022/07/21 04:49:56;;;;;;;12.73;11.43;;;19.10;99.90;;;;;;5105833;28;20465;-85
2022/07/21 04:52:23;;;;;;;12.03;10.77;;;19.10;99.90;;;;;;5083170;28;20507;-86
2022/07/21 04:54:50;;;;;;;13.13;11.90;;;19.10;99.90;;;;;;5080604;28;20526;-85
2022/07/21 04:57:17;;;;;;;11.70;10.60;;;19.20;99.90;;;;;;5122524;28;20480;-85
2022/07/21 04:59:43;;;;;;;11.40;10.30;;;19.20;99.90;;;;;;5121890;28;20536;-86
2022/07/21 05:02:10;;;;;;;14.87;13.13;;;19.30;99.90;;;;;;5124684;28;20582;-85
2022/07/21 05:04:39;;;;;;;15.40;13.80;;;19.50;99.90;;;;;;5123057;28;20486;-85
2022/07/21 05:07:06;;;;;;;15.47;13.97;;;19.50;99.90;;;;;;5122905;28;20501;-85
2022/07/21 05:09:33;;;;;;;16.53;14.47;;;19.50;99.90;;;;;;5105798;28;20476;-85
2022/07/21 05:11:59;;;;;;;15.30;13.80;;;19.40;99.90;;;;;;5111183;28;20563;-84
2022/07/21 05:14:26;;;;;;;14.97;13.47;;;19.50;99.90;;;;;;5106500;28;20553;-86
2022/07/21 05:16:53;;;;;;;16.90;15.20;;;19.50;99.90;;;;;;5109474;28;20536;-85
2022/07/21 05:19:20;;;;;;;17.37;15.57;;;19.60;99.90;;;;;;5110105;28;20540;-83
2022/07/21 05:21:48;;;;;;;14.83;13.43;;;19.60;99.90;;;;;;5109478;28;21027;-81
2022/07/21 05:24:15;;;;;;;16.33;14.83;;;19.70;99.90;;;;;;5107443;28;20450;-83
2022/07/21 05:26:42;;;;;;;15.60;13.93;;;19.70;99.90;;;;;;5109322;28;20481;-84
2022/07/21 05:29:09;;;;;;;14.83;13.43;;;19.70;99.90;;;;;;5107920;28;20461;-83
2022/07/21 05:31:36;;;;;;;17.20;15.60;;;19.90;99.90;;;;;;5107742;28;20477;-83
2022/07/21 05:34:03;;;;;;;18.87;16.90;;;19.90;99.90;;;;;;5108300;28;20458;-83
2022/07/21 05:36:29;;;;;;;18.93;17.00;;;19.90;99.90;;;;;;5115488;28;20485;-83
2022/07/21 05:38:58;;;;;;;17.63;15.13;;;19.80;99.90;;;;;;5121525;28;20457;-81
2022/07/21 05:41:25;;;;;;;16.67;14.87;;;20.00;99.90;;;;;;5135407;28;20453;-84
2022/07/21 05:43:52;;;;;;;15.80;14.30;;;20.00;99.90;;;;;;5133229;28;20518;-82
2022/07/21 05:46:19;;;;;;;16.47;14.77;;;20.20;99.90;;;;;;5134803;28;20441;-83
2022/07/21 05:48:45;;;;;;;15.20;13.70;;;20.30;99.90;;;;;;5121632;28;20474;-83
2022/07/21 05:51:12;;;;;;;15.90;14.40;;;20.30;99.90;;;;;;5099490;28;20450;-83
2022/07/21 05:53:39;;;;;;;18.40;16.60;;;20.50;99.90;;;;;;5116978;28;20496;-84
2022/07/21 05:56:08;;;;;;;17.33;15.63;;;20.30;99.90;;;;;;5115391;28;20450;-82
2022/07/21 05:58:35;;;;;;;17.77;15.13;;;20.00;99.90;;;;;;5107737;28;20454;-83
2022/07/21 06:01:13;;;;;;;18.10;16.37;;;20.20;99.90;;;;;;5108760;28;20470;-82
2022/07/21 06:03:42;;;;;;;17.53;15.93;;;20.10;99.90;;;;;;5116969;28;21273;-86
2022/07/21 06:06:09;;;;;;;17.10;15.40;;;20.10;99.90;;;;;;5109772;28;20456;-83
2022/07/21 06:08:39;;;;;;;16.70;15.20;;;20.00;99.90;;;;;;5104736;28;20465;-81
2022/07/21 06:11:08;;;;;;;18.47;16.70;;;20.00;99.90;;;;;;5108117;28;20441;-83
2022/07/21 06:13:35;;;;;;;18.90;15.87;;;20.00;99.90;;;;;;5106618;28;20481;-82
2022/07/21 06:16:02;;;;;;;16.57;14.97;;;20.10;99.90;;;;;;5106120;28;20461;-84
2022/07/21 06:18:29;;;;;;;16.90;15.30;;;20.00;99.90;;;;;;5101565;28;20451;-84
2022/07/21 06:21:03;;;;;;;15.37;13.83;;;20.10;99.90;;;;;;5108194;28;20454;-81
2022/07/21 06:23:33;;;;;;;16.53;14.93;;;20.20;99.90;;;;;;5096820;28;20546;-84
2022/07/21 06:26:00;;;;;;;18.77;16.90;;;20.10;99.90;;;;;;5105354;28;20506;-82
2022/07/21 06:28:28;;;;;;;19.97;17.90;;;20.20;99.90;;;;;;5111433;28;20454;-82
2022/07/21 06:30:55;;;;;;;17.47;15.73;;;20.30;99.90;;;;;;5109162;28;20457;-83
2022/07/21 06:33:22;;;;;;;20.70;18.70;;;20.20;99.90;;;;;;5106217;28;20495;-85
2022/07/21 06:35:49;;;;;;;17.27;15.70;;;20.20;99.90;;;;;;5111857;28;20429;-88
2022/07/21 06:38:16;;;;;;;17.03;15.23;;;20.20;99.90;;;;;;5114085;28;20447;-81
2022/07/21 06:40:43;;;;;;;20.20;18.23;;;20.30;99.90;;;;;;5105271;28;20494;-85
2022/07/21 06:43:10;;;;;;;17.47;15.87;;;20.30;99.90;;;;;;5107196;28;20488;-81
2022/07/21 06:45:40;;;;;;;17.40;15.80;;;20.40;99.90;;;;;;5112405;28;20465;-84
2022/07/21 06:48:08;;;;;;;16.23;14.80;;;20.50;99.90;;;;;;5096373;28;20511;-83
2022/07/21 06:50:36;;;;;;;16.33;14.90;;;20.60;99.90;;;;;;5104042;28;20481;-82
2022/07/21 06:53:05;;;;;;;14.70;13.40;;;20.70;99.90;;;;;;5095989;28;21285;-82
2022/07/21 06:55:33;;;;;;;15.03;12.10;;;20.50;99.90;;;;;;5096464;28;20819;-83
2022/07/21 06:58:09;;;;;;;15.70;14.20;;;20.50;99.90;;;;;;5096348;28;20442;-83
2022/07/21 07:00:37;;;;;;;14.50;13.10;;;20.60;99.90;;;;;;5105168;28;20474;-83
2022/07/21 07:03:05;;;;;;;11.10;9.87;;;20.60;99.90;;;;;;5121149;28;20481;-82
2022/07/21 07:05:31;;;;;;;12.13;10.87;;;20.70;99.90;;;;;;5103260;28;20553;-82
2022/07/21 07:07:58;;;;;;;13.50;11.70;;;20.80;99.90;;;;;;5105325;28;20482;-82
2022/07/21 07:10:26;;;;;;;12.30;11.20;;;20.80;99.90;;;;;;5084695;28;20435;-85
2022/07/21 07:12:52;;;;;;;12.10;10.93;;;20.70;99.90;;;;;;5103584;28;20523;-82
2022/07/21 07:15:25;;;;;;;12.73;11.57;;;20.70;99.90;;;;;;5107353;28;20544;-78
2022/07/21 07:17:59;;;;;;;14.57;13.17;;;20.80;99.90;;;;;;5112980;28;20442;-79
2022/07/21 07:20:26;;;;;;;11.33;9.97;;;20.90;99.90;;;;;;5105765;28;20484;-81
2022/07/21 07:22:55;;;;;;;10.30;9.30;;;20.80;99.90;;;;;;5106034;28;20520;-80
2022/07/21 07:25:22;;;;;;;12.93;11.10;;;20.90;99.90;;;;;;5108867;28;20465;-81
2022/07/21 07:27:51;;;;;;;13.07;11.13;;;21.00;99.90;;;;;;5107949;28;20480;-82
2022/07/21 07:30:24;;;;;;;14.53;13.13;;;21.20;99.90;;;;;;5107657;28;20442;-81
2022/07/21 07:32:51;;;;;;;11.80;10.60;;;21.10;99.90;;;;;;5102619;28;20466;-83
2022/07/21 07:35:20;;;;;;;11.53;10.33;;;21.10;99.90;;;;;;5101002;28;20454;-82
2022/07/21 07:37:47;;;;;;;12.20;9.43;;;21.10;99.90;;;;;;5104575;28;20815;-81
2022/07/21 07:40:18;;;;;;;10.70;9.07;;;21.20;99.90;;;;;;5108652;28;20464;-78
2022/07/21 07:42:46;;;;;;;10.03;9.00;;;21.10;75.90;;;;;;5107151;28;20521;-82
2022/07/21 07:45:14;;;;;;;10.33;9.33;;;21.10;99.90;;;;;;5108020;28;20536;-81
2022/07/21 07:47:41;;;;;;;11.70;8.80;;;21.10;99.90;;;;;;5102950;28;20454;-81
2022/07/21 07:50:13;;;;;;;10.77;9.67;;;21.10;99.90;;;;;;5110858;28;20469;-81
2022/07/21 07:52:43;;;;;;;9.00;7.07;;;21.10;99.90;;;;;;5110198;28;20499;-81
2022/07/21 07:55:12;;;;;;;7.97;7.17;;;21.40;99.90;;;;;;5106841;28;20465;-82
2022/07/21 07:57:39;;;;;;;10.97;6.83;;;21.50;99.90;;;;;;5102365;28;20456;-78
2022/07/21 08:00:11;;;;;;;6.60;5.50;;;21.50;52.90;;;;;;5106900;28;20513;-82
2022/07/21 08:02:38;;;;;;;6.60;5.83;;;21.90;92.90;;;;;;5100962;28;20508;-83
2022/07/21 08:05:06;;;;;;;7.63;5.93;;;22.00;1.00;;;;;;5111084;28;20450;-81
2022/07/21 08:07:33;;;;;;;6.47;5.80;;;22.30;47.20;;;;;;5111883;28;20454;-83
2022/07/21 08:10:01;;;;;;;7.13;5.87;;;22.60;69.00;;;;;;5112334;28;20457;-82
2022/07/21 08:12:28;;;;;;;10.77;6.53;;;22.60;13.70;;;;;;5111050;28;20481;-81
2022/07/21 08:14:55;;;;;;;8.23;6.70;;;22.60;1.00;;;;;;5110977;28;20453;-83
2022/07/21 08:17:22;;;;;;;8.90;6.37;;;22.20;1.00;;;;;;5119063;28;20461;-80
2022/07/21 08:19:49;;;;;;;10.90;7.10;;;22.30;1.00;;;;;;5111360;28;20478;-82
2022/07/21 08:22:16;;;;;;;12.43;7.10;;;22.40;1.00;;;;;;5108006;28;20469;-82
2022/07/21 08:24:43;;;;;;;8.50;7.60;;;22.20;1.00;;;;;;5124168;28;20537;-84
2022/07/21 08:27:11;;;;;;;10.00;8.43;;;22.40;1.00;;;;;;5116353;28;20447;-80
2022/07/21 08:29:38;;;;;;;8.40;7.13;;;22.60;1.00;;;;;;5109716;28;20453;-80
2022/07/21 08:32:05;;;;;;;8.10;7.30;;;22.80;1.00;;;;;;5110726;28;20494;-81
2022/07/21 08:34:32;;;;;;;8.57;7.43;;;22.80;1.00;;;;;;5122065;28;20453;-80
2022/07/21 08:36:59;;;;;;;7.10;5.73;;;23.00;1.00;;;;;;5141285;27;20466;-80
2022/07/21 08:39:26;;;;;;;7.50;6.07;;;22.90;1.00;;;;;;5130109;28;20441;-79
2022/07/21 08:41:53;;;;;;;6.90;6.30;;;22.90;1.00;;;;;;5113133;28;20517;-80
2022/07/21 08:44:23;;;;;;;9.80;7.00;;;22.70;1.00;;;;;;5114103;28;20520;-80
2022/07/21 08:46:51;;;;;;;6.73;5.87;;;22.60;1.00;;;;;;5109789;28;20453;-80
2022/07/21 08:49:22;;;;;;;5.93;5.33;;;22.60;1.00;;;;;;5107817;28;20886;-80
2022/07/21 08:51:51;;;;;;;7.17;6.10;;;22.70;1.00;;;;;;5114296;28;20449;-80
2022/07/21 08:54:18;;;;;;;5.80;4.87;;;22.80;1.00;;;;;;5114594;28;20522;-79
2022/07/21 08:56:45;;;;;;;7.10;5.50;;;22.90;1.00;;;;;;5120258;28;20449;-80
2022/07/21 08:59:12;;;;;;;5.47;4.97;;;23.00;1.00;;;;;;5100306;28;20487;-79
2022/07/21 09:01:40;;;;;;;5.60;4.67;;;23.10;1.00;;;;;;5109201;28;20458;-80
2022/07/21 09:04:29;;;;;;;6.83;5.23;;;23.20;1.00;;;;;;5104921;28;20950;-81
2022/07/21 09:06:58;;;;;;;12.90;5.13;;;23.00;99.90;;;;;;5102045;28;20525;-79
2022/07/21 09:09:26;;;;;;;6.17;5.10;;;22.90;99.90;;;;;;5101176;28;20536;-80
2022/07/21 09:11:54;;;;;;;6.53;5.57;;;23.10;1.00;;;;;;5100193;28;20891;-80
2022/07/21 09:14:23;;;;;;;6.60;4.97;;;23.20;1.00;;;;;;5110547;28;20490;-80
2022/07/21 09:19:31;;;;;;;7.60;5.20;;;23.20;99.90;;;;;;5105128;28;20470;-81
2022/07/21 09:21:59;;;;;;;9.30;5.13;;;23.20;99.90;;;;;;5112941;28;20958;-80
2022/07/21 09:24:31;;;;;;;9.90;5.83;;;23.30;99.90;;;;;;5111609;28;20486;-82
2022/07/21 09:27:08;;;;;;;5.17;4.53;;;23.50;1.00;;;;;;5098328;28;20458;-82
2022/07/21 09:29:38;;;;;;;7.57;4.97;;;23.60;1.00;;;;;;5112564;28;20449;-81
2022/07/21 09:32:17;;;;;;;6.00;4.40;;;23.60;99.90;;;;;;5083852;28;20451;-84
2022/07/21 09:34:46;;;;;;;6.10;4.77;;;23.60;99.90;;;;;;5090973;28;20458;-83
2022/07/21 09:37:13;;;;;;;8.23;5.07;;;23.50;99.90;;;;;;5091949;28;20447;-80
2022/07/21 09:39:48;;;;;;;6.00;5.23;;;23.30;99.90;;;;;;5104898;28;20443;-82
2022/07/21 09:42:18;;;;;;;6.20;3.90;;;23.40;99.90;;;;;;5093044;28;20450;-81
2022/07/21 09:44:46;;;;;;;6.10;4.50;;;23.50;1.00;;;;;;5091745;28;20471;-81
2022/07/21 09:47:15;;;;;;;7.03;4.50;;;23.40;99.90;;;;;;5093981;28;20512;-81
2022/07/21 09:49:43;;;;;;;10.97;5.30;;;23.50;1.00;;;;;;5100348;28;20455;-78
2022/07/21 09:52:26;;;;;;;5.43;4.40;;;23.50;99.90;;;;;;5089703;28;20470;-79
2022/07/21 09:54:54;;;;;;;5.00;4.30;;;23.60;99.90;;;;;;5074226;28;20507;-79
2022/07/21 09:57:22;;;;;;;8.40;5.07;;;23.60;99.90;;;;;;5087112;28;20957;-79
2022/07/21 09:59:51;;;;;;;7.93;4.70;;;23.30;99.90;;;;;;5089170;28;20455;-79
2022/07/21 10:02:21;;;;;;;6.23;4.93;;;23.30;99.90;;;;;;5087924;28;22285;-78
2022/07/21 10:04:52;;;;;;;6.83;5.13;;;23.40;1.00;;;;;;5090356;28;20855;-80
2022/07/21 10:07:20;;;;;;;6.87;5.97;;;23.30;99.90;;;;;;5098845;28;20463;-80
2022/07/21 10:09:49;;;;;;;8.90;5.30;;;23.10;1.00;;;;;;5087220;28;20471;-79
2022/07/21 10:12:16;;;;;;;10.93;5.47;;;23.10;1.00;;;;;;5089176;28;20451;-79
2022/07/21 10:14:43;;;;;;;7.83;5.90;;;23.30;99.90;;;;;;5068085;28;20436;-79
2022/07/21 10:17:10;;;;;;;8.50;5.93;;;23.40;1.00;;;;;;5089106;28;20511;-80
2022/07/21 10:19:45;;;;;;;6.20;5.03;;;23.30;99.10;;;;;;5087818;28;20444;-78
2022/07/21 10:22:22;;;;;;;9.70;6.03;;;23.30;99.90;;;;;;5097691;28;20825;-80
2022/07/21 10:24:51;;;;;;;8.83;5.83;;;23.20;99.90;;;;;;5107367;28;20553;-79
2022/07/21 10:27:19;;;;;;;7.70;6.23;;;23.20;99.90;;;;;;5104427;28;20451;-77
2022/07/21 10:29:58;;;;;;;13.00;7.37;;;23.30;1.00;;;;;;5098732;28;20539;-78
2022/07/21 10:32:31;;;;;;;6.87;6.17;;;23.10;99.90;;;;;;5106054;28;20480;-80
2022/07/21 10:35:00;;;;;;;6.30;5.53;;;23.20;1.00;;;;;;5103678;28;20446;-79
2022/07/21 10:37:50;;;;;;;7.67;5.87;;;23.40;99.90;;;;;;5105202;28;20503;-78
2022/07/21 10:40:41;;;;;;;9.33;6.00;;;23.20;99.90;;;;;;5105305;28;20478;-78
2022/07/21 10:43:43;;;;;;;7.87;5.33;;;23.20;1.00;;;;;;5091457;28;20446;-78
2022/07/21 10:46:40;;;;;;;9.00;6.30;;;23.30;44.30;;;;;;5086190;28;20462;-79
2022/07/21 10:49:09;;;;;;;6.20;5.43;;;23.20;99.90;;;;;;5085827;28;20530;-80
2022/07/21 10:51:37;;;;;;;6.10;5.50;;;23.20;99.90;;;;;;5070965;28;20822;-79
2022/07/21 10:54:19;;;;;;;8.00;6.17;;;23.10;14.80;;;;;;5083489;28;20535;-78
2022/07/21 10:56:47;;;;;;;7.27;4.97;;;23.00;99.90;;;;;;5066251;28;20452;-78
2022/07/21 10:59:14;;;;;;;6.90;5.50;;;22.90;99.90;;;;;;5071201;28;20507;-78
2022/07/21 11:01:42;;;;;;;7.00;5.60;;;23.00;99.90;;;;;;5081228;28;20474;-81
2022/07/21 11:04:11;;;;;;;5.77;4.77;;;22.90;1.00;;;;;;5092343;28;20548;-78
2022/07/21 11:06:40;;;;;;;7.47;5.77;;;22.90;99.90;;;;;;5107630;28;20450;-81
2022/07/21 11:09:23;;;;;;;9.17;6.60;;;22.70;1.00;;;;;;5107322;28;20498;-79
2022/07/21 11:12:03;;;;;;;10.00;7.00;;;22.50;1.00;;;;;;5084401;28;20470;-79
2022/07/21 11:14:39;;;;;;;8.23;6.63;;;22.50;1.00;;;;;;5087366;28;20435;-79
2022/07/21 11:17:06;;;;;;;11.50;8.03;;;22.40;1.00;;;;;;5083491;28;20482;-80
2022/07/21 11:19:48;;;;;;;8.60;7.20;;;22.10;1.00;;;;;;5089557;28;20806;-80
2022/07/21 11:22:16;;;;;;;12.07;8.93;;;22.10;1.00;;;;;;5087255;28;20426;-79
2022/07/21 11:24:45;;;;;;;9.33;7.97;;;22.10;1.00;;;;;;5081690;28;20487;-80
2022/07/21 11:27:15;;;;;;;9.37;7.97;;;21.90;1.00;;;;;;5077215;28;20491;-80
2022/07/21 11:29:45;;;;;;;13.60;8.57;;;21.80;1.00;;;;;;5068354;28;20432;-80
2022/07/21 11:32:13;;;;;;;10.03;9.10;;;21.80;14.90;;;;;;5069619;28;20483;-80
2022/07/21 11:34:44;;;;;;;10.57;9.43;;;21.80;49.20;;;;;;5067690;28;20470;-79
2022/07/21 11:37:12;;;;;;;11.17;9.80;;;21.70;11.50;;;;;;5065220;28;20475;-78
2022/07/21 11:39:39;;;;;;;16.53;11.67;;;21.60;40.50;;;;;;5084912;28;20470;-79
2022/07/21 11:42:08;;;;;;;13.67;9.93;;;21.50;96.70;;;;;;5081574;28;20451;-80
2022/07/21 11:44:36;;;;;;;12.20;10.20;;;21.60;85.50;;;;;;5071801;28;20515;-80
2022/07/21 11:47:05;;;;;;;13.87;9.77;;;21.60;99.90;;;;;;5069243;28;20478;-79
2022/07/21 11:49:33;;;;;;;10.20;8.70;;;21.50;99.90;;;;;;5067232;28;20454;-81
2022/07/21 11:52:02;;;;;;;10.77;8.73;;;21.40;99.90;;;;;;5080013;28;20483;-82
2022/07/21 11:54:32;;;;;;;12.83;10.63;;;21.40;99.90;;;;;;5073051;28;20447;-80
2022/07/21 11:57:00;;;;;;;10.80;7.90;;;21.30;99.90;;;;;;5080482;28;20526;-80
2022/07/21 11:59:28;;;;;;;11.70;9.40;;;21.30;99.90;;;;;;5079243;28;20956;-81
2022/07/21 12:02:00;;;;;;;9.90;8.90;;;21.30;99.90;;;;;;5079792;28;20450;-81
2022/07/21 12:04:43;;;;;;;9.37;8.47;;;21.20;99.90;;;;;;5075569;28;20618;-78
2022/07/21 12:07:20;;;;;;;11.90;9.67;;;21.30;99.90;;;;;;5076487;28;20490;-82
2022/07/21 12:09:57;;;;;;;13.17;11.33;;;21.30;99.90;;;;;;5060974;28;20447;-79
2022/07/21 12:12:32;;;;;;;10.13;9.07;;;21.20;99.90;;;;;;5056900;28;20476;-82
2022/07/21 12:15:11;;;;;;;8.07;6.90;;;21.10;99.90;;;;;;5060378;28;20471;-78
2022/07/21 12:17:41;;;;;;;9.53;7.37;;;20.90;99.90;;;;;;5083106;28;20482;-83
2022/07/21 12:20:09;;;;;;;9.20;8.40;;;20.90;99.90;;;;;;5073227;28;20494;-79
2022/07/21 12:22:39;;;;;;;10.70;8.70;;;20.80;99.90;;;;;;5053540;28;20543;-82
2022/07/21 12:25:08;;;;;;;8.50;7.70;;;20.80;99.90;;;;;;5056356;28;20502;-79
2022/07/21 12:27:37;;;;;;;11.70;8.20;;;20.80;99.90;;;;;;5074937;28;20471;-80
2022/07/21 12:30:05;;;;;;;11.43;8.73;;;20.70;99.90;;;;;;5072004;28;20451;-79
2022/07/21 12:32:45;;;;;;;7.60;6.80;;;20.70;99.90;;;;;;5076336;28;20451;-80
2022/07/21 12:35:26;;;;;;;7.90;6.77;;;20.90;99.90;;;;;;5073465;28;20466;-80
2022/07/21 12:38:03;;;;;;;9.33;7.53;;;20.90;99.90;;;;;;5067865;28;20545;-78
2022/07/21 12:40:31;;;;;;;7.10;6.37;;;21.00;99.90;;;;;;5062583;28;20467;-80
2022/07/21 12:43:21;;;;;;;7.40;6.60;;;21.20;99.90;;;;;;5063491;28;20520;-81
2022/07/21 12:45:51;;;;;;;8.70;7.10;;;21.20;99.90;;;;;;5077258;28;20524;-79
2022/07/21 12:48:23;;;;;;;9.80;7.10;;;21.20;99.90;;;;;;5092497;28;20471;-82
2022/07/21 12:51:01;;;;;;;6.83;6.17;;;21.00;99.90;;;;;;5080138;28;20549;-81
2022/07/21 12:53:29;;;;;;;8.03;7.23;;;21.00;99.90;;;;;;5079899;28;20479;-82